Archival Weather

Moundou

Moundou, Chad (FTTD)

Report from: Friday, April 19, 2024 9:00 AM WAT
Current time: Monday, July 22, 2024 11:59 AM WAT

Current weather – Weather history – Daily summaries
Weather forecast

Temperature32.0°C (89.6°F)
Heat index33.5°C (92.3°F)
Dew point19.0°C (66.2°F)
Winds 6 kts (3.1 m/s, 6.9 mph) South (180°)
Clouds Sky clear
Altimeter29.85 in.Hg (1011 mB)
Relative humidity46 %
Density altitude2,315 ft. (706 m)
Remarks Ceiling and visibility OK
Flight conditions Visual Meteorological Conditions
Raw dataFTTD 190800Z 18006KT CAVOK 32/19 Q1011
An error has occurred. This application may no longer respond until reloaded. Reload 🗙